sensor_id;sensor_type;location;lat;lon;timestamp;P1;durP1;ratioP1;P2;durP2;ratioP2
52306;SDS011;38249;48.920;12.882;2022-07-15T00:01:59;6.57;;;5.40;;
52306;SDS011;38249;48.920;12.882;2022-07-15T00:04:26;6.65;;;5.93;;
52306;SDS011;38249;48.920;12.882;2022-07-15T00:06:53;6.65;;;5.95;;
52306;SDS011;38249;48.920;12.882;2022-07-15T00:09:19;6.97;;;6.20;;
52306;SDS011;38249;48.920;12.882;2022-07-15T00:12:06;7.22;;;5.80;;
52306;SDS011;38249;48.920;12.882;2022-07-15T00:14:32;7.68;;;6.75;;
52306;SDS011;38249;48.920;12.882;2022-07-15T00:16:59;7.10;;;6.22;;
52306;SDS011;38249;48.920;12.882;2022-07-15T00:19:27;6.43;;;5.78;;
52306;SDS011;38249;48.920;12.882;2022-07-15T00:21:53;6.80;;;6.10;;
52306;SDS011;38249;48.920;12.882;2022-07-15T00:24:20;5.88;;;5.28;;
52306;SDS011;38249;48.920;12.882;2022-07-15T00:26:46;7.05;;;5.22;;
52306;SDS011;38249;48.920;12.882;2022-07-15T00:29:13;7.50;;;4.85;;
52306;SDS011;38249;48.920;12.882;2022-07-15T00:31:40;5.60;;;4.50;;
52306;SDS011;38249;48.920;12.882;2022-07-15T00:34:06;6.43;;;4.30;;
52306;SDS011;38249;48.920;12.882;2022-07-15T00:36:34;6.10;;;4.57;;
52306;SDS011;38249;48.920;12.882;2022-07-15T00:39:01;4.45;;;3.58;;
52306;SDS011;38249;48.920;12.882;2022-07-15T00:41:27;4.93;;;3.47;;
52306;SDS011;38249;48.920;12.882;2022-07-15T00:46:28;4.15;;;2.85;;
52306;SDS011;38249;48.920;12.882;2022-07-15T00:48:55;4.65;;;3.00;;
52306;SDS011;38249;48.920;12.882;2022-07-15T00:51:22;5.53;;;2.75;;
52306;SDS011;38249;48.920;12.882;2022-07-15T00:53:50;5.10;;;2.72;;
52306;SDS011;38249;48.920;12.882;2022-07-15T00:56:20;5.72;;;3.28;;
52306;SDS011;38249;48.920;12.882;2022-07-15T00:58:51;3.40;;;2.47;;
52306;SDS011;38249;48.920;12.882;2022-07-15T01:01:18;4.55;;;2.40;;
52306;SDS011;38249;48.920;12.882;2022-07-15T01:03:45;4.40;;;2.25;;
52306;SDS011;38249;48.920;12.882;2022-07-15T01:06:14;4.70;;;2.22;;
52306;SDS011;38249;48.920;12.882;2022-07-15T01:08:40;3.63;;;1.95;;
52306;SDS011;38249;48.920;12.882;2022-07-15T01:11:08;4.03;;;1.65;;
52306;SDS011;38249;48.920;12.882;2022-07-15T01:13:35;3.60;;;1.80;;
52306;SDS011;38249;48.920;12.882;2022-07-15T01:16:01;4.45;;;1.30;;
52306;SDS011;38249;48.920;12.882;2022-07-15T01:18:28;2.17;;;1.63;;
52306;SDS011;38249;48.920;12.882;2022-07-15T01:20:56;3.53;;;1.77;;
52306;SDS011;38249;48.920;12.882;2022-07-15T01:23:23;5.72;;;2.13;;
52306;SDS011;38249;48.920;12.882;2022-07-15T01:25:49;2.10;;;1.90;;
52306;SDS011;38249;48.920;12.882;2022-07-15T01:28:18;4.38;;;1.92;;
52306;SDS011;38249;48.920;12.882;2022-07-15T01:30:45;3.97;;;1.70;;
52306;SDS011;38249;48.920;12.882;2022-07-15T01:33:11;4.10;;;2.08;;
52306;SDS011;38249;48.920;12.882;2022-07-15T01:35:38;3.22;;;1.90;;
52306;SDS011;38249;48.920;12.882;2022-07-15T01:38:06;6.45;;;1.73;;
52306;SDS011;38249;48.920;12.882;2022-07-15T01:40:33;6.00;;;1.73;;
52306;SDS011;38249;48.920;12.882;2022-07-15T01:43:00;3.60;;;1.60;;
52306;SDS011;38249;48.920;12.882;2022-07-15T01:45:26;2.53;;;1.75;;
52306;SDS011;38249;48.920;12.882;2022-07-15T01:47:53;3.75;;;1.88;;
52306;SDS011;38249;48.920;12.882;2022-07-15T01:50:19;3.80;;;2.10;;
52306;SDS011;38249;48.920;12.882;2022-07-15T01:55:44;3.05;;;2.00;;
52306;SDS011;38249;48.920;12.882;2022-07-15T01:58:10;5.57;;;1.85;;
52306;SDS011;38249;48.920;12.882;2022-07-15T02:00:37;4.00;;;1.92;;
52306;SDS011;38249;48.920;12.882;2022-07-15T02:03:03;7.65;;;2.22;;
52306;SDS011;38249;48.920;12.882;2022-07-15T02:05:30;4.93;;;1.63;;
52306;SDS011;38249;48.920;12.882;2022-07-15T02:07:57;4.22;;;2.13;;
52306;SDS011;38249;48.920;12.882;2022-07-15T02:10:24;2.92;;;1.70;;
52306;SDS011;38249;48.920;12.882;2022-07-15T02:13:04;3.60;;;1.83;;
52306;SDS011;38249;48.920;12.882;2022-07-15T02:15:30;4.53;;;1.77;;
52306;SDS011;38249;48.920;12.882;2022-07-15T02:17:58;5.15;;;1.90;;
52306;SDS011;38249;48.920;12.882;2022-07-15T02:20:25;2.47;;;1.80;;
52306;SDS011;38249;48.920;12.882;2022-07-15T02:22:52;3.15;;;1.80;;
52306;SDS011;38249;48.920;12.882;2022-07-15T02:25:22;2.80;;;1.80;;
52306;SDS011;38249;48.920;12.882;2022-07-15T02:27:52;2.60;;;1.50;;
52306;SDS011;38249;48.920;12.882;2022-07-15T02:30:21;3.67;;;1.63;;
52306;SDS011;38249;48.920;12.882;2022-07-15T02:32:48;4.43;;;1.65;;
52306;SDS011;38249;48.920;12.882;2022-07-15T02:35:15;6.78;;;3.40;;
52306;SDS011;38249;48.920;12.882;2022-07-15T02:37:42;5.97;;;4.22;;
52306;SDS011;38249;48.920;12.882;2022-07-15T02:40:10;4.13;;;1.60;;
52306;SDS011;38249;48.920;12.882;2022-07-15T02:42:38;3.60;;;2.60;;
52306;SDS011;38249;48.920;12.882;2022-07-15T02:45:06;5.15;;;1.50;;
52306;SDS011;38249;48.920;12.882;2022-07-15T02:47:33;4.15;;;2.17;;
52306;SDS011;38249;48.920;12.882;2022-07-15T02:50:00;2.67;;;1.63;;
52306;SDS011;38249;48.920;12.882;2022-07-15T02:52:26;3.05;;;1.85;;
52306;SDS011;38249;48.920;12.882;2022-07-15T02:54:52;4.72;;;2.35;;
52306;SDS011;38249;48.920;12.882;2022-07-15T02:57:19;13.18;;;8.98;;
52306;SDS011;38249;48.920;12.882;2022-07-15T02:59:47;3.85;;;2.25;;
52306;SDS011;38249;48.920;12.882;2022-07-15T03:02:13;4.68;;;1.27;;
52306;SDS011;38249;48.920;12.882;2022-07-15T03:04:40;4.50;;;1.95;;
52306;SDS011;38249;48.920;12.882;2022-07-15T03:07:06;2.95;;;1.80;;
52306;SDS011;38249;48.920;12.882;2022-07-15T03:09:33;5.20;;;1.80;;
52306;SDS011;38249;48.920;12.882;2022-07-15T03:12:00;4.43;;;1.90;;
52306;SDS011;38249;48.920;12.882;2022-07-15T03:14:26;3.15;;;1.70;;
52306;SDS011;38249;48.920;12.882;2022-07-15T03:16:54;4.38;;;1.80;;
52306;SDS011;38249;48.920;12.882;2022-07-15T03:19:21;3.13;;;2.20;;
52306;SDS011;38249;48.920;12.882;2022-07-15T03:21:48;3.45;;;2.10;;
52306;SDS011;38249;48.920;12.882;2022-07-15T03:24:15;9.13;;;7.30;;
52306;SDS011;38249;48.920;12.882;2022-07-15T03:26:41;6.05;;;4.43;;
52306;SDS011;38249;48.920;12.882;2022-07-15T03:29:08;5.70;;;3.35;;
52306;SDS011;38249;48.920;12.882;2022-07-15T03:31:35;10.90;;;8.02;;
52306;SDS011;38249;48.920;12.882;2022-07-15T03:34:03;4.25;;;3.40;;
52306;SDS011;38249;48.920;12.882;2022-07-15T03:36:30;7.38;;;4.63;;
52306;SDS011;38249;48.920;12.882;2022-07-15T03:38:56;5.00;;;4.28;;
52306;SDS011;38249;48.920;12.882;2022-07-15T03:41:23;5.80;;;3.10;;
52306;SDS011;38249;48.920;12.882;2022-07-15T03:43:49;4.70;;;2.60;;
52306;SDS011;38249;48.920;12.882;2022-07-15T03:46:16;3.88;;;2.65;;
52306;SDS011;38249;48.920;12.882;2022-07-15T03:48:42;7.00;;;3.55;;
52306;SDS011;38249;48.920;12.882;2022-07-15T03:51:10;5.43;;;3.92;;
52306;SDS011;38249;48.920;12.882;2022-07-15T03:53:37;5.18;;;3.85;;
52306;SDS011;38249;48.920;12.882;2022-07-15T03:56:03;3.65;;;2.60;;
52306;SDS011;38249;48.920;12.882;2022-07-15T03:58:30;3.92;;;2.60;;
52306;SDS011;38249;48.920;12.882;2022-07-15T04:03:46;4.50;;;2.55;;
52306;SDS011;38249;48.920;12.882;2022-07-15T04:06:14;4.35;;;3.10;;
52306;SDS011;38249;48.920;12.882;2022-07-15T04:08:40;6.00;;;3.50;;
52306;SDS011;38249;48.920;12.882;2022-07-15T04:11:07;7.95;;;4.82;;
52306;SDS011;38249;48.920;12.882;2022-07-15T04:13:34;6.65;;;4.30;;
52306;SDS011;38249;48.920;12.882;2022-07-15T04:16:01;7.93;;;4.72;;
52306;SDS011;38249;48.920;12.882;2022-07-15T04:18:27;6.55;;;4.82;;
52306;SDS011;38249;48.920;12.882;2022-07-15T04:20:55;6.30;;;3.95;;
52306;SDS011;38249;48.920;12.882;2022-07-15T04:23:22;2.60;;;2.22;;
52306;SDS011;38249;48.920;12.882;2022-07-15T04:25:49;5.40;;;1.90;;
52306;SDS011;38249;48.920;12.882;2022-07-15T04:28:17;5.72;;;3.92;;
52306;SDS011;38249;48.920;12.882;2022-07-15T04:30:43;3.95;;;3.00;;
52306;SDS011;38249;48.920;12.882;2022-07-15T04:33:10;2.65;;;2.22;;
52306;SDS011;38249;48.920;12.882;2022-07-15T04:35:36;7.85;;;2.25;;
52306;SDS011;38249;48.920;12.882;2022-07-15T04:38:04;4.60;;;1.92;;
52306;SDS011;38249;48.920;12.882;2022-07-15T04:40:31;2.42;;;2.10;;
52306;SDS011;38249;48.920;12.882;2022-07-15T04:42:58;7.70;;;5.78;;
52306;SDS011;38249;48.920;12.882;2022-07-15T04:45:25;2.60;;;2.10;;
52306;SDS011;38249;48.920;12.882;2022-07-15T04:47:51;3.63;;;2.35;;
52306;SDS011;38249;48.920;12.882;2022-07-15T04:50:18;9.27;;;6.38;;
52306;SDS011;38249;48.920;12.882;2022-07-15T04:53:03;6.97;;;3.70;;
52306;SDS011;38249;48.920;12.882;2022-07-15T04:55:30;3.30;;;2.40;;
52306;SDS011;38249;48.920;12.882;2022-07-15T04:57:57;2.90;;;2.13;;
52306;SDS011;38249;48.920;12.882;2022-07-15T05:00:24;2.40;;;2.20;;
52306;SDS011;38249;48.920;12.882;2022-07-15T05:02:50;4.25;;;2.70;;
52306;SDS011;38249;48.920;12.882;2022-07-15T05:05:17;7.70;;;4.60;;
52306;SDS011;38249;48.920;12.882;2022-07-15T05:07:44;17.05;;;11.13;;
52306;SDS011;38249;48.920;12.882;2022-07-15T05:10:12;14.15;;;8.27;;
52306;SDS011;38249;48.920;12.882;2022-07-15T05:12:39;7.40;;;4.25;;
52306;SDS011;38249;48.920;12.882;2022-07-15T05:15:06;13.98;;;8.65;;
52306;SDS011;38249;48.920;12.882;2022-07-15T05:17:33;15.02;;;10.68;;
52306;SDS011;38249;48.920;12.882;2022-07-15T05:20:00;8.23;;;5.70;;
52306;SDS011;38249;48.920;12.882;2022-07-15T05:22:27;12.70;;;7.10;;
52306;SDS011;38249;48.920;12.882;2022-07-15T05:24:53;17.40;;;10.82;;
52306;SDS011;38249;48.920;12.882;2022-07-15T05:27:21;17.65;;;11.77;;
52306;SDS011;38249;48.920;12.882;2022-07-15T05:29:48;19.02;;;12.10;;
52306;SDS011;38249;48.920;12.882;2022-07-15T05:32:14;22.15;;;14.80;;
52306;SDS011;38249;48.920;12.882;2022-07-15T05:34:41;14.85;;;8.70;;
52306;SDS011;38249;48.920;12.882;2022-07-15T05:37:07;6.78;;;4.38;;
52306;SDS011;38249;48.920;12.882;2022-07-15T05:39:34;16.15;;;11.27;;
52306;SDS011;38249;48.920;12.882;2022-07-15T05:42:00;8.70;;;5.40;;
52306;SDS011;38249;48.920;12.882;2022-07-15T05:44:28;5.85;;;2.92;;
52306;SDS011;38249;48.920;12.882;2022-07-15T05:46:55;3.63;;;2.50;;
52306;SDS011;38249;48.920;12.882;2022-07-15T05:49:22;5.63;;;2.22;;
52306;SDS011;38249;48.920;12.882;2022-07-15T05:51:49;7.47;;;2.80;;
52306;SDS011;38249;48.920;12.882;2022-07-15T05:54:15;5.88;;;2.35;;
52306;SDS011;38249;48.920;12.882;2022-07-15T05:56:41;4.72;;;2.13;;
52306;SDS011;38249;48.920;12.882;2022-07-15T05:59:08;6.13;;;3.35;;
52306;SDS011;38249;48.920;12.882;2022-07-15T06:01:36;5.50;;;2.50;;
52306;SDS011;38249;48.920;12.882;2022-07-15T06:04:02;4.75;;;2.95;;
52306;SDS011;38249;48.920;12.882;2022-07-15T06:06:29;4.72;;;2.22;;
52306;SDS011;38249;48.920;12.882;2022-07-15T06:08:55;4.28;;;2.72;;
52306;SDS011;38249;48.920;12.882;2022-07-15T06:11:22;3.63;;;2.40;;
52306;SDS011;38249;48.920;12.882;2022-07-15T06:13:48;4.63;;;2.47;;
52306;SDS011;38249;48.920;12.882;2022-07-15T06:16:15;7.95;;;2.78;;
52306;SDS011;38249;48.920;12.882;2022-07-15T06:18:43;4.15;;;2.15;;
52306;SDS011;38249;48.920;12.882;2022-07-15T06:21:09;4.25;;;2.20;;
52306;SDS011;38249;48.920;12.882;2022-07-15T06:23:36;4.90;;;2.53;;
52306;SDS011;38249;48.920;12.882;2022-07-15T06:26:03;7.85;;;2.38;;
52306;SDS011;38249;48.920;12.882;2022-07-15T06:28:29;8.45;;;2.20;;
52306;SDS011;38249;48.920;12.882;2022-07-15T06:30:56;3.35;;;2.00;;
52306;SDS011;38249;48.920;12.882;2022-07-15T06:33:22;6.60;;;2.67;;
52306;SDS011;38249;48.920;12.882;2022-07-15T06:35:50;5.97;;;1.98;;
52306;SDS011;38249;48.920;12.882;2022-07-15T06:38:17;5.00;;;2.08;;
52306;SDS011;38249;48.920;12.882;2022-07-15T06:40:44;4.50;;;1.88;;
52306;SDS011;38249;48.920;12.882;2022-07-15T06:43:10;2.90;;;1.95;;
52306;SDS011;38249;48.920;12.882;2022-07-15T06:45:37;3.78;;;1.95;;
52306;SDS011;38249;48.920;12.882;2022-07-15T06:48:04;3.42;;;2.28;;
52306;SDS011;38249;48.920;12.882;2022-07-15T06:50:31;3.00;;;1.90;;
52306;SDS011;38249;48.920;12.882;2022-07-15T06:52:59;4.95;;;2.33;;
52306;SDS011;38249;48.920;12.882;2022-07-15T06:55:26;2.47;;;1.88;;
52306;SDS011;38249;48.920;12.882;2022-07-15T06:57:53;4.60;;;2.35;;
52306;SDS011;38249;48.920;12.882;2022-07-15T07:00:20;4.65;;;2.00;;
52306;SDS011;38249;48.920;12.882;2022-07-15T07:02:46;4.25;;;1.60;;
52306;SDS011;38249;48.920;12.882;2022-07-15T07:05:13;3.28;;;1.73;;
52306;SDS011;38249;48.920;12.882;2022-07-15T07:07:40;3.78;;;1.58;;
52306;SDS011;38249;48.920;12.882;2022-07-15T07:10:08;1.77;;;1.35;;
52306;SDS011;38249;48.920;12.882;2022-07-15T07:12:35;4.90;;;1.48;;
52306;SDS011;38249;48.920;12.882;2022-07-15T07:15:02;1.85;;;1.40;;
52306;SDS011;38249;48.920;12.882;2022-07-15T07:17:31;2.88;;;1.70;;
52306;SDS011;38249;48.920;12.882;2022-07-15T07:19:57;4.82;;;1.70;;
52306;SDS011;38249;48.920;12.882;2022-07-15T07:22:24;2.47;;;1.65;;
52306;SDS011;38249;48.920;12.882;2022-07-15T07:24:51;2.63;;;1.80;;
52306;SDS011;38249;48.920;12.882;2022-07-15T07:27:19;2.47;;;1.52;;
52306;SDS011;38249;48.920;12.882;2022-07-15T07:29:46;3.95;;;1.73;;
52306;SDS011;38249;48.920;12.882;2022-07-15T07:32:12;3.03;;;1.40;;
52306;SDS011;38249;48.920;12.882;2022-07-15T07:34:39;3.08;;;1.42;;
52306;SDS011;38249;48.920;12.882;2022-07-15T07:37:05;2.38;;;1.75;;
52306;SDS011;38249;48.920;12.882;2022-07-15T07:39:32;2.42;;;1.60;;
52306;SDS011;38249;48.920;12.882;2022-07-15T07:41:58;4.80;;;2.95;;
52306;SDS011;38249;48.920;12.882;2022-07-15T07:44:26;2.80;;;1.58;;
52306;SDS011;38249;48.920;12.882;2022-07-15T07:46:53;4.00;;;1.85;;
52306;SDS011;38249;48.920;12.882;2022-07-15T07:49:19;2.90;;;1.73;;
52306;SDS011;38249;48.920;12.882;2022-07-15T07:51:46;2.65;;;1.73;;
52306;SDS011;38249;48.920;12.882;2022-07-15T07:54:13;5.13;;;2.17;;
52306;SDS011;38249;48.920;12.882;2022-07-15T07:56:39;4.50;;;1.80;;
52306;SDS011;38249;48.920;12.882;2022-07-15T07:59:07;5.72;;;1.83;;
52306;SDS011;38249;48.920;12.882;2022-07-15T08:01:35;4.72;;;1.85;;
52306;SDS011;38249;48.920;12.882;2022-07-15T08:04:02;1.42;;;1.33;;
52306;SDS011;38249;48.920;12.882;2022-07-15T08:06:29;4.57;;;1.73;;
52306;SDS011;38249;48.920;12.882;2022-07-15T08:08:56;2.85;;;1.80;;
52306;SDS011;38249;48.920;12.882;2022-07-15T08:11:22;4.07;;;1.52;;
52306;SDS011;38249;48.920;12.882;2022-07-15T08:13:49;2.65;;;1.50;;
52306;SDS011;38249;48.920;12.882;2022-07-15T08:16:15;2.97;;;1.48;;
52306;SDS011;38249;48.920;12.882;2022-07-15T08:18:43;3.15;;;1.50;;
52306;SDS011;38249;48.920;12.882;2022-07-15T08:21:10;3.83;;;1.83;;
52306;SDS011;38249;48.920;12.882;2022-07-15T08:23:36;3.88;;;2.08;;
52306;SDS011;38249;48.920;12.882;2022-07-15T08:26:03;2.03;;;1.50;;
52306;SDS011;38249;48.920;12.882;2022-07-15T08:28:31;2.45;;;1.75;;
52306;SDS011;38249;48.920;12.882;2022-07-15T08:30:58;2.95;;;1.63;;
52306;SDS011;38249;48.920;12.882;2022-07-15T08:33:24;3.53;;;1.65;;
52306;SDS011;38249;48.920;12.882;2022-07-15T08:35:52;2.83;;;1.60;;
52306;SDS011;38249;48.920;12.882;2022-07-15T08:38:20;2.03;;;1.60;;
52306;SDS011;38249;48.920;12.882;2022-07-15T08:40:46;4.60;;;1.88;;
52306;SDS011;38249;48.920;12.882;2022-07-15T08:43:13;4.47;;;2.13;;
52306;SDS011;38249;48.920;12.882;2022-07-15T08:45:40;2.10;;;1.70;;
52306;SDS011;38249;48.920;12.882;2022-07-15T08:48:08;5.50;;;1.70;;
52306;SDS011;38249;48.920;12.882;2022-07-15T08:50:36;2.38;;;1.70;;
52306;SDS011;38249;48.920;12.882;2022-07-15T08:53:04;3.85;;;1.60;;
52306;SDS011;38249;48.920;12.882;2022-07-15T08:55:31;4.35;;;2.08;;
52306;SDS011;38249;48.920;12.882;2022-07-15T08:57:58;2.05;;;1.88;;
52306;SDS011;38249;48.920;12.882;2022-07-15T09:00:25;6.97;;;4.05;;
52306;SDS011;38249;48.920;12.882;2022-07-15T09:02:55;5.18;;;2.88;;
52306;SDS011;38249;48.920;12.882;2022-07-15T09:05:24;3.58;;;2.13;;
52306;SDS011;38249;48.920;12.882;2022-07-15T09:08:02;3.22;;;2.30;;
52306;SDS011;38249;48.920;12.882;2022-07-15T09:10:42;3.67;;;2.10;;
52306;SDS011;38249;48.920;12.882;2022-07-15T09:13:11;2.58;;;1.73;;
52306;SDS011;38249;48.920;12.882;2022-07-15T09:15:46;3.25;;;2.20;;
52306;SDS011;38249;48.920;12.882;2022-07-15T09:18:16;2.33;;;1.85;;
52306;SDS011;38249;48.920;12.882;2022-07-15T09:20:45;3.13;;;1.77;;
52306;SDS011;38249;48.920;12.882;2022-07-15T09:23:14;3.08;;;2.30;;
52306;SDS011;38249;48.920;12.882;2022-07-15T09:25:46;4.20;;;2.88;;
52306;SDS011;38249;48.920;12.882;2022-07-15T09:28:14;4.90;;;3.85;;
52306;SDS011;38249;48.920;12.882;2022-07-15T09:30:41;3.60;;;2.58;;
52306;SDS011;38249;48.920;12.882;2022-07-15T09:33:27;4.03;;;2.97;;
52306;SDS011;38249;48.920;12.882;2022-07-15T09:36:01;3.92;;;2.80;;
52306;SDS011;38249;48.920;12.882;2022-07-15T09:38:38;3.58;;;2.80;;
52306;SDS011;38249;48.920;12.882;2022-07-15T09:41:07;4.25;;;2.10;;
52306;SDS011;38249;48.920;12.882;2022-07-15T09:43:43;3.63;;;2.55;;
52306;SDS011;38249;48.920;12.882;2022-07-15T09:46:14;4.75;;;3.60;;
52306;SDS011;38249;48.920;12.882;2022-07-15T09:48:42;2.72;;;2.40;;
52306;SDS011;38249;48.920;12.882;2022-07-15T09:51:10;5.85;;;3.20;;
52306;SDS011;38249;48.920;12.882;2022-07-15T09:53:38;2.85;;;2.00;;
52306;SDS011;38249;48.920;12.882;2022-07-15T09:56:06;2.70;;;2.50;;
52306;SDS011;38249;48.920;12.882;2022-07-15T09:58:36;2.60;;;2.40;;
52306;SDS011;38249;48.920;12.882;2022-07-15T10:01:04;3.55;;;2.15;;
52306;SDS011;38249;48.920;12.882;2022-07-15T10:03:32;2.90;;;2.60;;
52306;SDS011;38249;48.920;12.882;2022-07-15T10:05:59;2.22;;;1.85;;
52306;SDS011;38249;48.920;12.882;2022-07-15T10:08:27;2.17;;;1.77;;
52306;SDS011;38249;48.920;12.882;2022-07-15T10:10:56;1.90;;;1.80;;
52306;SDS011;38249;48.920;12.882;2022-07-15T10:13:33;3.67;;;1.85;;
52306;SDS011;38249;48.920;12.882;2022-07-15T10:19:19;3.03;;;1.98;;
52306;SDS011;38249;48.920;12.882;2022-07-15T10:21:56;2.47;;;1.75;;
52306;SDS011;38249;48.920;12.882;2022-07-15T10:24:37;3.05;;;1.73;;
52306;SDS011;38249;48.920;12.882;2022-07-15T10:30:04;2.30;;;1.55;;
52306;SDS011;38249;48.920;12.882;2022-07-15T10:35:33;3.65;;;1.77;;
52306;SDS011;38249;48.920;12.882;2022-07-15T10:38:25;2.03;;;1.50;;
52306;SDS011;38249;48.920;12.882;2022-07-15T10:41:04;1.92;;;1.38;;
52306;SDS011;38249;48.920;12.882;2022-07-15T10:43:40;1.83;;;1.60;;
52306;SDS011;38249;48.920;12.882;2022-07-15T10:46:17;1.40;;;1.30;;
52306;SDS011;38249;48.920;12.882;2022-07-15T10:48:53;1.85;;;1.52;;
52306;SDS011;38249;48.920;12.882;2022-07-15T10:52:13;3.15;;;1.55;;
52306;SDS011;38249;48.920;12.882;2022-07-15T10:54:42;1.77;;;1.50;;
52306;SDS011;38249;48.920;12.882;2022-07-15T10:57:10;1.95;;;1.63;;
52306;SDS011;38249;48.920;12.882;2022-07-15T10:59:46;3.10;;;1.67;;
52306;SDS011;38249;48.920;12.882;2022-07-15T11:02:19;1.70;;;1.60;;
52306;SDS011;38249;48.920;12.882;2022-07-15T11:04:47;2.17;;;1.83;;
52306;SDS011;38249;48.920;12.882;2022-07-15T11:10:13;1.77;;;1.67;;
52306;SDS011;38249;48.920;12.882;2022-07-15T11:12:54;2.28;;;2.08;;
52306;SDS011;38249;48.920;12.882;2022-07-15T11:15:24;2.67;;;1.60;;
52306;SDS011;38249;48.920;12.882;2022-07-15T11:17:51;1.70;;;1.60;;
52306;SDS011;38249;48.920;12.882;2022-07-15T11:20:20;3.92;;;1.80;;
52306;SDS011;38249;48.920;12.882;2022-07-15T11:22:50;1.70;;;1.60;;
52306;SDS011;38249;48.920;12.882;2022-07-15T11:25:18;2.42;;;2.20;;
52306;SDS011;38249;48.920;12.882;2022-07-15T11:28:00;8.25;;;7.47;;
52306;SDS011;38249;48.920;12.882;2022-07-15T11:30:37;3.05;;;2.75;;
52306;SDS011;38249;48.920;12.882;2022-07-15T11:33:06;1.83;;;1.63;;
52306;SDS011;38249;48.920;12.882;2022-07-15T11:35:46;2.53;;;2.25;;
52306;SDS011;38249;48.920;12.882;2022-07-15T11:38:17;3.50;;;3.20;;
52306;SDS011;38249;48.920;12.882;2022-07-15T11:40:48;2.90;;;1.83;;
52306;SDS011;38249;48.920;12.882;2022-07-15T11:43:34;2.35;;;1.70;;
52306;SDS011;38249;48.920;12.882;2022-07-15T11:46:33;2.10;;;1.60;;
52306;SDS011;38249;48.920;12.882;2022-07-15T11:49:08;1.83;;;1.30;;
52306;SDS011;38249;48.920;12.882;2022-07-15T11:51:35;1.80;;;1.00;;
52306;SDS011;38249;48.920;12.882;2022-07-15T11:54:03;2.45;;;1.52;;
52306;SDS011;38249;48.920;12.882;2022-07-15T11:56:29;2.65;;;1.20;;
52306;SDS011;38249;48.920;12.882;2022-07-15T11:58:56;2.10;;;1.35;;
52306;SDS011;38249;48.920;12.882;2022-07-15T12:01:24;2.20;;;1.55;;
52306;SDS011;38249;48.920;12.882;2022-07-15T12:03:53;2.17;;;1.38;;
52306;SDS011;38249;48.920;12.882;2022-07-15T12:06:22;1.63;;;1.30;;
52306;SDS011;38249;48.920;12.882;2022-07-15T12:08:51;1.20;;;1.08;;
52306;SDS011;38249;48.920;12.882;2022-07-15T12:11:22;0.95;;;0.90;;
52306;SDS011;38249;48.920;12.882;2022-07-15T12:13:51;1.85;;;1.20;;
52306;SDS011;38249;48.920;12.882;2022-07-15T12:16:22;1.13;;;1.02;;
52306;SDS011;38249;48.920;12.882;2022-07-15T12:18:51;1.70;;;1.35;;
52306;SDS011;38249;48.920;12.882;2022-07-15T12:21:19;1.13;;;1.02;;
52306;SDS011;38249;48.920;12.882;2022-07-15T12:26:32;1.90;;;1.17;;
52306;SDS011;38249;48.920;12.882;2022-07-15T12:29:00;1.10;;;1.00;;
52306;SDS011;38249;48.920;12.882;2022-07-15T12:31:29;3.05;;;1.50;;
52306;SDS011;38249;48.920;12.882;2022-07-15T12:33:57;1.25;;;0.85;;
52306;SDS011;38249;48.920;12.882;2022-07-15T12:36:24;1.45;;;1.15;;
52306;SDS011;38249;48.920;12.882;2022-07-15T12:39:02;1.83;;;1.27;;
52306;SDS011;38249;48.920;12.882;2022-07-15T12:41:33;1.58;;;1.20;;
52306;SDS011;38249;48.920;12.882;2022-07-15T12:44:00;1.33;;;1.10;;
52306;SDS011;38249;48.920;12.882;2022-07-15T12:46:52;3.15;;;1.77;;
52306;SDS011;38249;48.920;12.882;2022-07-15T12:52:13;2.42;;;1.65;;
52306;SDS011;38249;48.920;12.882;2022-07-15T12:54:41;1.30;;;1.00;;
52306;SDS011;38249;48.920;12.882;2022-07-15T12:57:19;1.52;;;1.10;;
52306;SDS011;38249;48.920;12.882;2022-07-15T12:59:50;2.60;;;1.95;;
52306;SDS011;38249;48.920;12.882;2022-07-15T13:02:18;4.00;;;2.72;;
52306;SDS011;38249;48.920;12.882;2022-07-15T13:04:45;3.83;;;3.40;;
52306;SDS011;38249;48.920;12.882;2022-07-15T13:07:11;2.30;;;1.50;;
52306;SDS011;38249;48.920;12.882;2022-07-15T13:09:38;3.95;;;3.30;;
52306;SDS011;38249;48.920;12.882;2022-07-15T13:12:05;3.65;;;2.53;;
52306;SDS011;38249;48.920;12.882;2022-07-15T13:14:33;1.42;;;1.33;;
52306;SDS011;38249;48.920;12.882;2022-07-15T13:16:59;2.50;;;1.52;;
52306;SDS011;38249;48.920;12.882;2022-07-15T13:19:26;3.70;;;1.92;;
52306;SDS011;38249;48.920;12.882;2022-07-15T13:21:52;1.90;;;1.40;;
52306;SDS011;38249;48.920;12.882;2022-07-15T13:24:19;2.55;;;1.40;;
52306;SDS011;38249;48.920;12.882;2022-07-15T13:26:45;2.55;;;1.40;;
52306;SDS011;38249;48.920;12.882;2022-07-15T13:29:12;3.88;;;1.30;;
52306;SDS011;38249;48.920;12.882;2022-07-15T13:31:40;1.70;;;1.60;;
52306;SDS011;38249;48.920;12.882;2022-07-15T13:34:06;1.52;;;1.40;;
52306;SDS011;38249;48.920;12.882;2022-07-15T13:36:33;1.90;;;1.10;;
52306;SDS011;38249;48.920;12.882;2022-07-15T13:39:01;1.48;;;1.38;;
52306;SDS011;38249;48.920;12.882;2022-07-15T13:41:28;1.25;;;1.15;;
52306;SDS011;38249;48.920;12.882;2022-07-15T13:43:54;2.28;;;1.50;;
52306;SDS011;38249;48.920;12.882;2022-07-15T13:46:21;1.85;;;1.27;;
52306;SDS011;38249;48.920;12.882;2022-07-15T13:48:49;2.03;;;1.30;;
52306;SDS011;38249;48.920;12.882;2022-07-15T13:51:15;1.40;;;1.20;;
52306;SDS011;38249;48.920;12.882;2022-07-15T13:53:50;3.50;;;0.93;;
52306;SDS011;38249;48.920;12.882;2022-07-15T13:56:18;2.08;;;1.20;;
52306;SDS011;38249;48.920;12.882;2022-07-15T13:58:46;2.63;;;1.40;;
52306;SDS011;38249;48.920;12.882;2022-07-15T14:01:13;2.25;;;1.55;;
52306;SDS011;38249;48.920;12.882;2022-07-15T14:03:40;1.35;;;1.25;;
52306;SDS011;38249;48.920;12.882;2022-07-15T14:06:08;1.83;;;1.48;;
52306;SDS011;38249;48.920;12.882;2022-07-15T14:08:35;1.90;;;1.48;;
52306;SDS011;38249;48.920;12.882;2022-07-15T14:11:01;2.65;;;1.67;;
52306;SDS011;38249;48.920;12.882;2022-07-15T14:13:28;1.73;;;1.40;;
52306;SDS011;38249;48.920;12.882;2022-07-15T14:15:54;2.45;;;1.42;;
52306;SDS011;38249;48.920;12.882;2022-07-15T14:18:21;2.47;;;1.40;;
52306;SDS011;38249;48.920;12.882;2022-07-15T14:21:09;2.72;;;1.20;;
52306;SDS011;38249;48.920;12.882;2022-07-15T14:23:35;4.10;;;1.70;;
52306;SDS011;38249;48.920;12.882;2022-07-15T14:26:02;4.68;;;2.38;;
52306;SDS011;38249;48.920;12.882;2022-07-15T14:28:29;5.10;;;2.60;;
52306;SDS011;38249;48.920;12.882;2022-07-15T14:30:55;5.22;;;4.65;;
52306;SDS011;38249;48.920;12.882;2022-07-15T14:33:22;2.83;;;1.75;;
52306;SDS011;38249;48.920;12.882;2022-07-15T14:35:49;6.53;;;1.58;;
52306;SDS011;38249;48.920;12.882;2022-07-15T14:38:17;3.25;;;1.90;;
52306;SDS011;38249;48.920;12.882;2022-07-15T14:40:43;2.70;;;2.08;;
52306;SDS011;38249;48.920;12.882;2022-07-15T14:43:10;4.05;;;3.75;;
52306;SDS011;38249;48.920;12.882;2022-07-15T14:45:36;4.03;;;2.88;;
52306;SDS011;38249;48.920;12.882;2022-07-15T14:48:03;4.05;;;2.90;;
52306;SDS011;38249;48.920;12.882;2022-07-15T14:50:31;3.22;;;1.50;;
52306;SDS011;38249;48.920;12.882;2022-07-15T14:52:58;2.90;;;1.20;;
52306;SDS011;38249;48.920;12.882;2022-07-15T14:55:26;1.90;;;1.50;;
52306;SDS011;38249;48.920;12.882;2022-07-15T14:57:53;2.58;;;2.00;;
52306;SDS011;38249;48.920;12.882;2022-07-15T15:00:19;4.15;;;1.45;;
52306;SDS011;38249;48.920;12.882;2022-07-15T15:02:47;4.50;;;1.80;;
52306;SDS011;38249;48.920;12.882;2022-07-15T15:05:14;2.08;;;1.40;;
52306;SDS011;38249;48.920;12.882;2022-07-15T15:07:40;2.40;;;1.50;;